Time;durP1;ratioP1;P1;durP2;ratioP2;P2;SDS_P1;SDS_P2;PMS_P1;PMS_P2;Temp;Humidity;BMP_temperature;BMP_pressure;BME280_temperature;BME280_humidity;BME280_pressure;Samples;Min_cycle;Max_cycle;Signal;HPM_P1;HPM_P2
2023/08/22 00:02:05;;;;;;;8.85;6.30;;;;;;;23.98;100.00;100700.13;4994260;28;20050;-74
2023/08/22 00:04:34;;;;;;;9.23;6.47;;;;;;;23.94;100.00;100703.25;4995615;28;20395;-75
2023/08/22 00:07:04;;;;;;;8.60;5.82;;;;;;;23.83;100.00;100696.22;4982354;28;20053;-74
2023/08/22 00:09:32;;;;;;;7.20;6.23;;;;;;;23.83;100.00;100703.47;5014270;28;20049;-75
2023/08/22 00:12:00;;;;;;;6.32;5.65;;;;;;;23.79;100.00;100700.22;4986121;28;20481;-74
2023/08/22 00:14:28;;;;;;;8.70;5.75;;;;;;;23.74;100.00;100703.38;4994341;28;20050;-74
2023/08/22 00:16:58;;;;;;;7.25;5.85;;;;;;;23.71;100.00;100697.41;5004697;28;20054;-73
2023/08/22 00:19:26;;;;;;;;;;;;;;;23.66;100.00;100699.69;5010744;28;20128;-74
2023/08/22 00:21:59;;;;;;;7.93;6.47;;;;;;;23.58;100.00;100702.31;4990338;28;20383;-73
2023/08/22 00:24:30;;;;;;;6.72;6.10;;;;;;;23.51;100.00;100707.44;4991740;28;20042;-74
2023/08/22 00:26:59;;;;;;;8.88;6.95;;;;;;;23.47;100.00;100699.72;5007868;28;20045;-74
2023/08/22 00:29:31;;;;;;;7.78;6.93;;;;;;;23.41;100.00;100690.38;4996990;28;20038;-75
2023/08/22 00:31:59;;;;;;;7.63;6.45;;;;;;;23.40;100.00;100694.09;5001029;28;20081;-74
2023/08/22 00:34:28;;;;;;;9.82;7.10;;;;;;;23.49;100.00;100690.47;4986707;28;20054;-73
2023/08/22 00:36:56;;;;;;;10.68;6.65;;;;;;;23.55;100.00;100692.63;4991057;28;20065;-74
2023/08/22 00:39:26;;;;;;;8.75;7.00;;;;;;;23.51;100.00;100690.34;4990780;28;20042;-73
2023/08/22 00:41:54;;;;;;;9.18;7.90;;;;;;;23.41;100.00;100675.03;4986678;28;20046;-75
2023/08/22 00:44:23;;;;;;;10.48;7.85;;;;;;;23.47;100.00;100691.63;4987178;28;20038;-74
2023/08/22 00:46:52;;;;;;;8.13;7.20;;;;;;;23.39;100.00;100687.81;4993825;28;20053;-74
2023/08/22 00:49:22;;;;;;;7.87;6.90;;;;;;;23.36;100.00;100685.41;5005851;28;20046;-73
2023/08/22 00:51:52;;;;;;;8.95;8.05;;;;;;;23.31;100.00;100687.69;4985538;28;20941;-73
2023/08/22 00:54:21;;;;;;;11.65;7.85;;;;;;;23.20;100.00;100689.72;4991917;28;20126;-73
2023/08/22 00:56:52;;;;;;;9.25;7.80;;;;;;;23.16;100.00;100686.44;4973003;28;20087;-73
2023/08/22 00:59:20;;;;;;;9.32;8.43;;;;;;;22.91;100.00;100654.66;4988688;28;20046;-74
2023/08/22 01:01:50;;;;;;;9.07;7.70;;;;;;;23.00;100.00;100657.34;4996702;28;20046;-73
2023/08/22 01:04:19;;;;;;;8.75;7.93;;;;;;;23.12;100.00;100671.56;5001195;28;20123;-74
2023/08/22 01:06:51;;;;;;;9.25;8.35;;;;;;;23.23;100.00;100681.34;4988952;28;20045;-73
2023/08/22 01:09:27;;;;;;;10.10;8.50;;;;;;;23.23;100.00;100675.94;4987135;28;20041;-73
2023/08/22 01:12:05;;;;;;;10.73;8.00;;;;;;;23.20;100.00;100677.06;4978139;28;20042;-74
2023/08/22 01:14:40;;;;;;;9.63;7.78;;;;;;;23.21;100.00;100673.38;5006946;28;20669;-74
2023/08/22 01:17:10;;;;;;;10.50;8.10;;;;;;;23.19;100.00;100669.09;4974814;28;20048;-73
2023/08/22 01:19:39;;;;;;;9.32;8.32;;;;;;;23.17;100.00;100661.16;4987435;28;20069;-75
2023/08/22 01:22:08;;;;;;;10.05;7.68;;;;;;;23.16;100.00;100654.03;4981465;28;20050;-74
2023/08/22 01:24:37;;;;;;;9.75;7.72;;;;;;;23.16;100.00;100662.13;4982663;28;20049;-75
2023/08/22 01:27:09;;;;;;;8.50;7.60;;;;;;;23.00;100.00;100651.94;5001654;28;20092;-73
2023/08/22 01:29:45;;;;;;;8.65;7.50;;;;;;;22.95;100.00;100650.69;5002505;28;20426;-74
2023/08/22 01:32:21;;;;;;;7.85;7.15;;;;;;;22.85;100.00;100633.63;5002344;28;20088;-73
2023/08/22 01:34:53;;;;;;;9.32;7.75;;;;;;;22.87;100.00;100648.69;4973019;28;20575;-74
2023/08/22 01:37:29;;;;;;;9.65;7.93;;;;;;;22.78;100.00;100648.72;5000690;28;20050;-74
2023/08/22 01:39:59;;;;;;;10.65;7.75;;;;;;;22.67;100.00;100646.97;5010013;28;21012;-74
2023/08/22 01:42:27;;;;;;;10.60;7.57;;;;;;;22.72;100.00;100648.25;4989547;28;20532;-73
2023/08/22 01:44:56;;;;;;;8.05;7.25;;;;;;;22.78;100.00;100648.72;4990525;28;20533;-75
2023/08/22 01:47:27;;;;;;;10.30;8.80;;;;;;;22.64;100.00;100637.34;4967439;28;20049;-75
2023/08/22 01:49:55;;;;;;;13.65;9.10;;;;;;;22.68;100.00;100638.75;4985711;28;20382;-74
2023/08/22 01:52:27;;;;;;;9.07;8.18;;;;;;;22.48;100.00;100631.69;4962180;28;20053;-74
2023/08/22 01:54:55;;;;;;;11.27;9.90;;;;;;;22.49;100.00;100640.63;4952609;28;20049;-74
2023/08/22 01:57:25;;;;;;;13.73;10.20;;;;;;;22.55;100.00;100654.38;4956239;28;20060;-75
2023/08/22 01:59:55;;;;;;;10.88;9.48;;;;;;;22.57;100.00;100655.09;4971286;28;20031;-73
2023/08/22 02:02:23;;;;;;;14.15;9.40;;;;;;;22.57;100.00;100641.59;4981149;28;20050;-74
2023/08/22 02:04:51;;;;;;;10.55;9.50;;;;;;;22.56;100.00;100656.09;4957702;28;20266;-73
2023/08/22 02:07:20;;;;;;;13.43;9.15;;;;;;;22.57;100.00;100649.69;4971643;28;20050;-73
2023/08/22 02:09:51;;;;;;;11.95;9.60;;;;;;;22.54;100.00;100651.81;4952361;28;20525;-73
2023/08/22 02:12:20;;;;;;;11.68;10.30;;;;;;;22.54;100.00;100649.97;4965763;28;20105;-73
2023/08/22 02:14:48;;;;;;;15.50;10.27;;;;;;;22.55;100.00;100662.47;4971758;28;20074;-74
2023/08/22 02:17:16;;;;;;;11.98;10.20;;;;;;;22.42;100.00;100637.63;4969880;28;20054;-73
2023/08/22 02:19:44;;;;;;;11.88;9.27;;;;;;;22.50;100.00;100662.06;4978900;28;20055;-74
2023/08/22 02:22:13;;;;;;;12.05;9.95;;;;;;;22.47;100.00;100654.25;4964505;28;20510;-74
2023/08/22 02:24:44;;;;;;;10.95;9.82;;;;;;;22.47;100.00;100656.97;4986671;28;20042;-74
2023/08/22 02:27:15;;;;;;;10.85;9.45;;;;;;;22.41;100.00;100649.41;4983354;28;20060;-74
2023/08/22 02:29:44;;;;;;;12.80;10.18;;;;;;;22.47;100.00;100666.91;4976212;28;20041;-74
2023/08/22 02:32:12;;;;;;;13.20;10.63;;;;;;;22.42;100.00;100652.97;4971328;28;20410;-74
2023/08/22 02:34:41;;;;;;;11.13;10.02;;;;;;;22.42;100.00;100659.22;4967385;28;20171;-74
2023/08/22 02:37:09;;;;;;;11.32;10.20;;;;;;;22.43;100.00;100660.94;4988957;28;20042;-73
2023/08/22 02:39:37;;;;;;;11.63;10.10;;;;;;;22.39;100.00;100657.66;4977117;28;20051;-73
2023/08/22 02:42:07;;;;;;;12.52;10.38;;;;;;;22.48;100.00;100666.75;4981550;28;20499;-73
2023/08/22 02:44:37;;;;;;;12.70;10.13;;;;;;;22.50;100.00;100667.47;4984419;28;20657;-72
2023/08/22 02:47:06;;;;;;;11.90;9.98;;;;;;;22.50;100.00;100656.69;4985411;28;20086;-74
2023/08/22 02:49:35;;;;;;;;;;;;;;;22.51;100.00;100661.06;4951960;28;20042;-73
2023/08/22 02:52:03;;;;;;;11.38;9.50;;;;;;;22.49;100.00;100660.38;4977643;28;19925;-73
2023/08/22 02:54:33;;;;;;;12.35;9.45;;;;;;;22.49;100.00;100657.66;4984288;28;20348;-73
2023/08/22 02:57:02;;;;;;;10.02;9.13;;;;;;;22.46;100.00;100655.25;4984013;28;20061;-73
2023/08/22 02:59:33;;;;;;;13.40;10.10;;;;;;;22.49;100.00;100660.38;4952012;28;20318;-74
2023/08/22 03:02:04;;;;;;;11.18;10.00;;;;;;;22.32;100.00;100658.38;4959091;28;20051;-74
2023/08/22 03:04:36;;;;;;;11.15;9.15;;;;;;;22.37;100.00;100661.47;4991626;28;20034;-73
2023/08/22 03:07:05;;;;;;;11.60;9.38;;;;;;;22.39;100.00;100664.91;4971242;28;20042;-73
2023/08/22 03:09:34;;;;;;;11.10;9.52;;;;;;;22.38;100.00;100663.19;4988579;28;20129;-75
2023/08/22 03:12:05;;;;;;;12.93;9.40;;;;;;;22.33;100.00;100654.69;4946726;28;20465;-73
2023/08/22 03:14:33;;;;;;;12.18;9.43;;;;;;;22.37;100.00;100662.34;4987738;28;20837;-75
2023/08/22 03:17:03;;;;;;;12.50;10.27;;;;;;;22.27;100.00;100660.63;4992385;28;20109;-73
2023/08/22 03:19:31;;;;;;;16.27;10.75;;;;;;;22.19;100.00;100660.50;4982666;28;20042;-74
2023/08/22 03:22:03;;;;;;;14.18;9.70;;;;;;;22.21;100.00;100664.72;4975485;28;20049;-74
2023/08/22 03:24:31;;;;;;;16.02;10.27;;;;;;;22.29;100.00;100664.91;4975050;28;20062;-74
2023/08/22 03:26:59;;;;;;;12.02;9.38;;;;;;;22.32;100.00;100661.94;4993242;28;20050;-74
2023/08/22 03:29:29;;;;;;;11.65;10.13;;;;;;;22.28;100.00;100660.50;5000403;28;20117;-75
2023/08/22 03:32:00;;;;;;;11.88;10.60;;;;;;;22.26;100.00;100661.63;4988651;28;20069;-75
2023/08/22 03:34:30;;;;;;;12.90;10.60;;;;;;;22.24;100.00;100653.66;4966138;28;20074;-74
2023/08/22 03:36:59;;;;;;;13.13;10.07;;;;;;;22.18;100.00;100648.84;4986856;28;20124;-75
2023/08/22 03:39:27;;;;;;;12.80;10.00;;;;;;;22.17;100.00;100641.75;4992532;28;20145;-74
2023/08/22 03:41:56;;;;;;;18.77;10.73;;;;;;;22.24;100.00;100658.22;5008447;28;20042;-75
2023/08/22 03:44:25;;;;;;;13.37;10.47;;;;;;;22.16;100.00;100658.94;5018804;28;20046;-73
2023/08/22 03:46:55;;;;;;;13.18;10.18;;;;;;;22.08;100.00;100655.22;5014023;28;20500;-75
2023/08/22 03:49:37;;;;;;;11.00;9.98;;;;;;;22.05;100.00;100650.94;4980504;28;20050;-74
2023/08/22 03:52:11;;;;;;;11.20;9.93;;;;;;;22.10;100.00;100650.53;4993395;28;20037;-73
2023/08/22 03:54:40;;;;;;;11.57;9.63;;;;;;;22.07;100.00;100650.81;4992440;28;20050;-72
2023/08/22 03:57:08;;;;;;;12.73;10.48;;;;;;;22.04;100.00;100658.16;4995844;28;20052;-75
2023/08/22 03:59:36;;;;;;;11.85;10.32;;;;;;;21.97;100.00;100648.06;4959417;28;20038;-75
2023/08/22 04:02:04;;;;;;;12.10;9.60;;;;;;;21.98;100.00;100661.41;4972937;28;20314;-72
2023/08/22 04:04:34;;;;;;;;;;;;;;;21.93;100.00;100660.97;5009462;28;20046;-72
2023/08/22 04:07:04;;;;;;;14.82;9.77;;;;;;;21.86;100.00;100662.53;4975496;28;20029;-73
2023/08/22 04:09:36;;;;;;;11.38;9.93;;;;;;;21.75;100.00;100659.06;4989297;28;20072;-75
2023/08/22 04:12:09;;;;;;;10.27;9.25;;;;;;;21.67;100.00;100667.84;5008844;28;20046;-73
2023/08/22 04:14:39;;;;;;;12.70;10.10;;;;;;;21.57;100.00;100662.41;5012026;28;20073;-74
2023/08/22 04:17:12;;;;;;;12.30;9.18;;;;;;;21.53;100.00;100668.22;4992791;28;20038;-74
2023/08/22 04:19:40;;;;;;;10.27;9.27;;;;;;;21.52;100.00;100659.28;5010304;28;22182;-73
2023/08/22 04:22:13;;;;;;;11.02;9.68;;;;;;;21.64;100.00;100665.41;4988454;28;20070;-76
2023/08/22 04:24:41;;;;;;;10.65;9.23;;;;;;;21.63;100.00;100658.31;4988017;28;20065;-73
2023/08/22 04:27:10;;;;;;;11.98;9.00;;;;;;;21.63;100.00;100661.03;4991154;28;20080;-73
2023/08/22 04:29:38;;;;;;;11.65;8.90;;;;;;;21.56;100.00;100670.66;4973402;28;20510;-73
2023/08/22 04:32:10;;;;;;;11.15;8.45;;;;;;;21.54;100.00;100675.31;5003306;28;20060;-75
2023/08/22 04:34:38;;;;;;;9.20;8.20;;;;;;;21.51;100.00;100673.75;4991746;28;20136;-73
2023/08/22 04:37:08;;;;;;;8.88;7.95;;;;;;;21.47;100.00;100672.31;5012881;28;20054;-73
2023/08/22 04:39:38;;;;;;;8.88;7.72;;;;;;;21.42;100.00;100661.06;4988981;28;20053;-73
2023/08/22 04:42:21;;;;;;;8.45;7.50;;;;;;;21.45;100.00;100668.03;4984924;28;20042;-73
2023/08/22 04:44:59;;;;;;;11.63;8.15;;;;;;;21.45;100.00;100671.56;4986018;28;20219;-73
2023/08/22 04:47:31;;;;;;;11.38;8.15;;;;;;;21.44;100.00;100688.72;4988427;28;20048;-73
2023/08/22 04:50:01;;;;;;;11.18;8.52;;;;;;;21.40;100.00;100671.16;4992258;28;20049;-74
2023/08/22 04:52:30;;;;;;;9.73;8.18;;;;;;;21.46;100.00;100678.69;4982713;28;20049;-74
2023/08/22 04:55:00;;;;;;;10.65;8.38;;;;;;;21.44;100.00;100679.78;4977003;28;20057;-75
2023/08/22 04:57:28;;;;;;;9.90;8.63;;;;;;;21.47;100.00;100682.22;4989523;28;20511;-74
2023/08/22 04:59:58;;;;;;;9.98;8.30;;;;;;;21.56;100.00;100686.81;4989290;28;20069;-74
2023/08/22 05:02:28;;;;;;;10.05;7.70;;;;;;;21.60;100.00;100683.69;4985287;28;20073;-73
2023/08/22 05:04:56;;;;;;;10.35;8.02;;;;;;;21.67;100.00;100684.03;5005843;28;20041;-73
2023/08/22 05:07:24;;;;;;;12.88;9.05;;;;;;;21.76;100.00;100682.34;4978722;28;20552;-75
2023/08/22 05:09:53;;;;;;;10.05;7.95;;;;;;;21.78;100.00;100681.22;4990972;28;20070;-74
2023/08/22 05:12:24;;;;;;;11.30;8.80;;;;;;;21.67;100.00;100671.41;4969468;28;20049;-74
2023/08/22 05:14:54;;;;;;;14.80;8.40;;;;;;;21.66;100.00;100685.88;5006955;28;20053;-73
2023/08/22 05:17:26;;;;;;;11.35;9.77;;;;;;;21.67;100.00;100684.03;4983322;28;20410;-73
2023/08/22 05:19:58;;;;;;;11.93;8.95;;;;;;;21.73;100.00;100685.28;5003259;28;20038;-73
2023/08/22 05:22:29;;;;;;;10.63;8.30;;;;;;;21.74;100.00;100684.31;4989176;28;20156;-73
2023/08/22 05:24:59;;;;;;;11.93;8.23;;;;;;;21.84;100.00;100696.00;4977742;28;20081;-73
2023/08/22 05:27:28;;;;;;;9.37;7.77;;;;;;;21.93;100.00;100690.63;4975307;28;20080;-73
2023/08/22 05:29:57;;;;;;;11.10;7.93;;;;;;;22.00;100.00;100697.22;4991065;28;20132;-75
2023/08/22 05:32:25;;;;;;;9.20;7.85;;;;;;;21.95;100.00;100683.25;4983248;28;20046;-74
2023/08/22 05:34:53;;;;;;;10.02;6.97;;;;;;;22.00;100.00;100686.44;4994841;28;20054;-74
2023/08/22 05:37:23;;;;;;;7.75;7.05;;;;;;;22.11;100.00;100698.94;4982042;28;20038;-73
2023/08/22 05:39:53;;;;;;;8.68;7.32;;;;;;;22.04;100.00;100692.38;4990070;28;20108;-73
2023/08/22 05:42:26;;;;;;;9.63;7.50;;;;;;;22.11;100.00;100698.94;5000480;28;20072;-74
2023/08/22 05:44:56;;;;;;;8.10;7.27;;;;;;;22.19;100.00;100703.66;4983833;28;20053;-73
2023/08/22 05:47:29;;;;;;;;;;;;;;;22.24;100.00;100701.38;4991034;28;21025;-74
2023/08/22 05:50:00;;;;;;;9.38;7.22;;;;;;;22.24;100.00;100709.47;4971406;28;19928;-76
2023/08/22 05:52:41;;;;;;;9.90;7.43;;;;;;;22.29;100.00;100709.91;4991297;28;20699;-74
2023/08/22 05:55:21;;;;;;;9.00;7.18;;;;;;;22.36;100.00;100708.34;4975446;28;20069;-73
2023/08/22 05:57:59;;;;;;;10.50;7.30;;;;;;;22.37;100.00;100699.25;4988732;28;20046;-73
2023/08/22 06:00:30;;;;;;;8.57;6.95;;;;;;;22.46;100.00;100706.53;4991638;28;20034;-73
2023/08/22 06:02:58;;;;;;;9.30;7.10;;;;;;;22.45;100.00;100698.56;4953968;28;20056;-74
2023/08/22 06:05:28;;;;;;;9.65;6.90;;;;;;;22.41;100.00;100684.50;4969198;28;20047;-74
2023/08/22 06:07:57;;;;;;;12.60;7.20;;;;;;;22.62;100.00;100712.22;4991784;28;20388;-74
2023/08/22 06:10:26;;;;;;;9.18;6.88;;;;;;;22.60;100.00;100689.91;4990012;28;20042;-75
2023/08/22 06:12:56;;;;;;;10.05;7.15;;;;;;;22.73;100.00;100703.13;4968742;28;20177;-75
2023/08/22 06:15:24;;;;;;;10.05;6.70;;;;;;;22.82;100.00;100707.72;4986056;28;20050;-74
2023/08/22 06:17:54;;;;;;;9.95;7.38;;;;;;;22.86;100.00;100692.91;4971814;28;20070;-74
2023/08/22 06:20:25;;;;;;;10.32;6.20;;;;;;;22.99;100.00;100706.09;4958848;28;20186;-74
2023/08/22 06:22:54;;;;;;;11.02;6.68;;;;;;;23.03;100.00;100700.28;4966982;28;20114;-74
2023/08/22 06:25:23;;;;;;;9.68;7.00;;;;;;;23.11;100.00;100694.16;4982824;28;20047;-74
2023/08/22 06:27:57;;;;;;;12.23;6.82;;;;;;;23.25;100.00;100698.25;4977660;28;20039;-73
2023/08/22 06:30:28;;;;;;;9.07;6.72;;;;;;;23.37;100.00;100708.75;4997369;28;20057;-74
2023/08/22 06:32:58;;;;;;;9.48;5.75;;;;;;;23.45;100.00;100702.63;4980763;28;20080;-76
2023/08/22 06:35:28;;;;;;;9.88;6.60;;;;;;;23.68;100.00;100703.13;4995520;28;20046;-74
2023/08/22 06:37:56;;;;;;;9.68;6.28;;;;;;;24.02;100.00;100700.66;4999140;28;20102;-74
2023/08/22 06:40:27;;;;;;;7.22;5.63;;;;;;;24.38;100.00;100701.63;4977294;28;20065;-74
2023/08/22 06:42:55;;;;;;;9.32;5.93;;;;;;;24.63;100.00;100690.00;4963255;28;20046;-75
2023/08/22 06:45:31;;;;;;;11.85;6.03;;;;;;;24.99;100.00;100695.44;4996975;28;20034;-74
2023/08/22 06:48:05;;;;;;;11.13;5.57;;;;;;;25.11;100.00;100699.59;4970687;28;20050;-73
2023/08/22 06:50:36;;;;;;;9.95;7.00;;;;;;;25.13;100.00;100703.00;4998852;28;20046;-74
2023/08/22 06:53:18;;;;;;;10.50;6.32;;;;;;;25.12;100.00;100704.00;4977528;28;20160;-76
2023/08/22 06:55:46;;;;;;;9.90;5.90;;;;;;;25.31;100.00;100711.94;4993101;28;20050;-75
2023/08/22 06:58:15;;;;;;;10.35;6.03;;;;;;;25.45;100.00;100703.19;4979093;28;20050;-74
2023/08/22 07:00:49;;;;;;;6.75;5.30;;;;;;;25.61;100.00;100701.59;4960169;28;20113;-75
2023/08/22 07:03:26;;;;;;;7.63;5.53;;;;;;;25.94;100.00;100706.19;4977767;28;20080;-75
2023/08/22 07:05:55;;;;;;;8.20;5.40;;;;;;;26.16;100.00;100707.44;4970989;28;20058;-74
2023/08/22 07:08:24;;;;;;;7.88;5.10;;;;;;;26.42;100.00;100708.25;4993816;28;20097;-75
2023/08/22 07:10:57;;;;;;;10.15;5.57;;;;;;;26.67;99.49;100700.97;4991664;28;20054;-74
2023/08/22 07:13:44;;;;;;;12.77;5.40;;;;;;;26.69;100.00;100707.06;4971513;28;20384;-74
2023/08/22 07:16:12;;;;;;;10.40;5.28;;;;;;;26.69;100.00;100701.63;4973063;28;20081;-74
2023/08/22 07:18:42;;;;;;;6.65;5.13;;;;;;;26.96;98.61;100705.91;4996519;28;20039;-74
2023/08/22 07:21:11;;;;;;;7.90;5.43;;;;;;;27.11;100.00;100711.50;4974383;28;20056;-73
2023/08/22 07:23:41;;;;;;;9.50;5.38;;;;;;;27.07;100.00;100702.03;4972859;28;20046;-73
2023/08/22 07:26:09;;;;;;;6.38;5.05;;;;;;;27.14;95.10;100719.34;4972316;28;20054;-76
2023/08/22 07:28:38;;;;;;;6.72;4.82;;;;;;;27.23;96.79;100712.88;4991049;28;20739;-73
2023/08/22 07:31:06;;;;;;;9.40;5.63;;;;;;;27.20;95.30;100714.06;4973047;28;20048;-73
2023/08/22 07:33:37;;;;;;;9.18;5.85;;;;;;;26.94;99.62;100715.25;4989861;28;20050;-73
2023/08/22 07:36:17;;;;;;;9.93;5.80;;;;;;;26.80;100.00;100714.88;4973184;28;20057;-73
2023/08/22 07:38:45;;;;;;;8.05;5.00;;;;;;;26.78;99.43;100719.63;4976380;28;20050;-76
2023/08/22 07:41:13;;;;;;;8.73;5.88;;;;;;;26.81;98.96;100722.03;4979453;28;20042;-74
2023/08/22 07:43:41;;;;;;;7.82;5.88;;;;;;;26.86;99.59;100716.09;4958654;28;20058;-75
2023/08/22 07:46:09;;;;;;;9.48;5.80;;;;;;;26.89;98.77;100722.03;5001847;28;20058;-75
2023/08/22 07:48:39;;;;;;;8.48;5.90;;;;;;;26.86;97.72;100725.09;5016606;28;20044;-73
2023/08/22 07:51:11;;;;;;;10.45;6.18;;;;;;;26.40;99.62;100721.13;4996401;28;20384;-74
2023/08/22 07:53:43;;;;;;;7.88;6.57;;;;;;;25.98;100.00;100721.09;4999087;28;20140;-76
2023/08/22 07:56:11;;;;;;;9.70;6.60;;;;;;;25.86;100.00;100723.28;4995074;28;20082;-74
2023/08/22 07:58:40;;;;;;;12.50;7.50;;;;;;;25.91;100.00;100724.66;5019630;28;20042;-75
2023/08/22 08:01:09;;;;;;;9.77;6.75;;;;;;;26.08;100.00;100726.41;5000781;28;20045;-75
2023/08/22 08:03:40;;;;;;;9.13;6.45;;;;;;;26.30;100.00;100730.41;5004166;28;20081;-76
2023/08/22 08:06:08;;;;;;;9.55;5.85;;;;;;;26.69;99.12;100726.09;4981549;28;20050;-74
2023/08/22 08:08:41;;;;;;;8.88;6.30;;;;;;;26.87;95.67;100707.78;4999327;28;20106;-75
2023/08/22 08:11:10;;;;;;;9.98;6.65;;;;;;;26.65;98.46;100721.16;4998647;28;20696;-74
2023/08/22 08:13:38;;;;;;;9.95;6.60;;;;;;;26.89;99.33;100734.78;4991935;28;20603;-75
2023/08/22 08:16:08;;;;;;;8.90;5.88;;;;;;;27.26;98.24;100731.53;5017989;28;20053;-75
2023/08/22 08:18:37;;;;;;;10.70;6.72;;;;;;;27.46;92.28;100719.28;4995254;28;20050;-75
2023/08/22 08:21:05;;;;;;;12.48;7.57;;;;;;;27.03;93.34;100727.84;5014388;28;20422;-74
2023/08/22 08:23:33;;;;;;;10.85;6.85;;;;;;;26.53;98.26;100726.91;4992187;28;20061;-74
2023/08/22 08:26:03;;;;;;;10.85;6.80;;;;;;;26.47;98.07;100724.84;5006505;28;20057;-75
2023/08/22 08:28:33;;;;;;;7.95;6.50;;;;;;;26.54;99.53;100730.47;4997933;28;20130;-74
2023/08/22 08:31:01;;;;;;;14.82;6.97;;;;;;;26.43;99.95;100733.53;4977990;28;20050;-73
2023/08/22 08:33:30;;;;;;;13.13;7.15;;;;;;;26.41;100.00;100738.25;5011666;28;20380;-76
2023/08/22 08:35:59;;;;;;;9.10;7.38;;;;;;;26.13;99.38;100718.66;4957150;28;20131;-73
2023/08/22 08:38:29;;;;;;;10.82;6.15;;;;;;;26.49;100.00;100721.97;4992095;28;20458;-74
2023/08/22 08:40:59;;;;;;;9.77;7.03;;;;;;;26.95;97.55;100719.66;4991918;28;20049;-75
2023/08/22 08:43:33;;;;;;;12.00;6.38;;;;;;;27.14;93.58;100717.47;5005604;28;20046;-76
2023/08/22 08:46:03;;;;;;;7.72;5.70;;;;;;;27.34;92.04;100720.69;4971455;28;20055;-73
2023/08/22 08:48:37;;;;;;;6.25;5.65;;;;;;;27.52;87.42;100723.19;4992259;28;20042;-73
2023/08/22 08:51:06;;;;;;;9.95;6.00;;;;;;;27.39;89.65;100712.81;4971341;28;20051;-72
2023/08/22 08:53:37;;;;;;;9.93;6.32;;;;;;;27.50;87.61;100717.94;4983184;28;20053;-72
2023/08/22 08:56:09;;;;;;;11.40;5.72;;;;;;;27.88;86.21;100718.16;4980630;28;20589;-72
2023/08/22 08:58:39;;;;;;;9.52;5.70;;;;;;;28.37;80.83;100716.06;4958549;28;20050;-72
2023/08/22 09:01:09;;;;;;;6.93;6.30;;;;;;;28.20;81.37;100696.25;4986514;28;20143;-72
2023/08/22 09:03:39;;;;;;;10.02;7.10;;;;;;;27.84;85.38;100711.41;4974400;28;20049;-72
2023/08/22 09:06:08;;;;;;;7.78;6.32;;;;;;;27.56;87.51;100721.78;4955501;28;20050;-72
2023/08/22 09:08:39;;;;;;;8.40;6.50;;;;;;;27.30;88.94;100708.44;4968180;28;20062;-71
2023/08/22 09:11:07;;;;;;;9.88;6.00;;;;;;;27.23;91.26;100710.16;4968845;28;20054;-72
2023/08/22 09:13:40;;;;;;;10.27;6.47;;;;;;;27.28;90.81;100715.06;4974920;28;20132;-72
2023/08/22 09:16:27;;;;;;;10.98;6.38;;;;;;;27.54;88.73;100722.00;4985916;28;20202;-71
2023/08/22 09:19:00;;;;;;;11.63;5.53;;;;;;;27.73;87.46;100717.19;4968983;28;20054;-72
2023/08/22 09:21:29;;;;;;;7.63;5.75;;;;;;;27.89;84.58;100711.69;4985037;28;20062;-71
2023/08/22 09:24:08;;;;;;;10.25;5.93;;;;;;;27.98;83.50;100718.81;4989132;28;20113;-72
2023/08/22 09:26:39;;;;;;;8.00;5.88;;;;;;;28.02;85.08;100713.88;4964932;28;20455;-72
2023/08/22 09:29:11;;;;;;;7.35;6.65;;;;;;;27.97;86.03;100716.25;4988414;28;20511;-72
2023/08/22 09:31:39;;;;;;;8.13;5.97;;;;;;;27.79;84.67;100713.78;4971701;28;20529;-72
2023/08/22 09:34:09;;;;;;;9.52;6.40;;;;;;;27.92;84.49;100719.50;4960374;28;20093;-72
2023/08/22 09:36:46;;;;;;;8.80;6.03;;;;;;;27.87;84.14;100717.31;4980845;28;20053;-72
2023/08/22 09:39:16;;;;;;;9.13;6.28;;;;;;;27.85;85.15;100716.66;4996142;28;20046;-72
2023/08/22 09:41:44;;;;;;;6.90;5.88;;;;;;;27.87;84.82;100716.47;4988458;28;20057;-72
2023/08/22 09:44:15;;;;;;;8.85;6.60;;;;;;;27.92;86.10;100716.78;4974839;28;20114;-72
2023/08/22 09:46:46;;;;;;;11.07;7.05;;;;;;;27.71;87.08;100722.81;4994010;28;20077;-73
2023/08/22 09:49:15;;;;;;;11.48;6.50;;;;;;;27.54;87.98;100734.75;4986932;28;20057;-73
2023/08/22 09:51:46;;;;;;;9.80;6.90;;;;;;;27.31;89.92;100720.16;4993318;28;20038;-73
2023/08/22 09:54:15;;;;;;;10.30;6.75;;;;;;;27.27;91.50;100722.38;4986853;28;20057;-74
2023/08/22 09:56:45;;;;;;;8.55;6.05;;;;;;;27.26;91.32;100726.09;5001159;28;20391;-75
2023/08/22 09:59:15;;;;;;;10.20;6.82;;;;;;;27.19;91.38;100723.25;4984315;28;20142;-73
2023/08/22 10:01:45;;;;;;;8.93;6.97;;;;;;;27.16;92.78;100734.47;4990365;28;20072;-73
2023/08/22 10:04:19;;;;;;;10.07;7.07;;;;;;;27.02;92.61;100732.44;4978235;28;20132;-75
2023/08/22 10:06:50;;;;;;;10.15;6.85;;;;;;;26.82;93.92;100728.31;4990944;28;20037;-72
2023/08/22 10:09:22;;;;;;;9.40;6.53;;;;;;;26.95;95.17;100725.09;5004444;28;20122;-73
2023/08/22 10:11:54;;;;;;;8.55;6.35;;;;;;;27.19;90.64;100723.25;5005755;28;20049;-72
2023/08/22 10:14:29;;;;;;;9.38;6.55;;;;;;;27.58;88.03;100709.75;5009579;28;22245;-71
2023/08/22 10:17:00;;;;;;;7.18;5.80;;;;;;;27.99;87.13;100719.66;5013353;28;20045;-73
2023/08/22 10:19:28;;;;;;;7.90;5.45;;;;;;;28.35;85.53;100714.56;4995609;28;20046;-72
2023/08/22 10:22:06;;;;;;;7.70;6.40;;;;;;;28.43;78.28;100701.75;4980692;28;20046;-73
2023/08/22 10:24:35;;;;;;;10.27;5.85;;;;;;;28.47;79.03;100711.25;4990855;28;20078;-74
2023/08/22 10:27:11;;;;;;;9.43;6.90;;;;;;;28.66;78.35;100696.28;4990291;28;20058;-74
2023/08/22 10:29:45;;;;;;;7.78;6.15;;;;;;;28.73;73.80;100700.00;4994629;28;20132;-73
2023/08/22 10:32:18;;;;;;;9.80;6.35;;;;;;;28.84;74.10;100694.13;4976571;28;20046;-72
2023/08/22 10:35:04;;;;;;;10.88;6.70;;;;;;;28.52;74.91;100692.47;4996862;28;20054;-73
2023/08/22 10:37:33;;;;;;;8.93;6.60;;;;;;;28.36;75.58;100691.75;5012291;28;20129;-73
2023/08/22 10:40:06;;;;;;;14.05;6.57;;;;;;;28.27;76.97;100699.13;5009692;28;20053;-75
2023/08/22 10:42:42;;;;;;;7.93;5.93;;;;;;;28.24;76.38;100692.16;5007508;28;20045;-77
2023/08/22 10:45:18;;;;;;;10.70;6.50;;;;;;;28.45;74.71;100693.41;4997023;28;20128;-75
2023/08/22 10:47:49;;;;;;;6.85;5.90;;;;;;;28.71;75.14;100693.03;4994107;28;20447;-79
2023/08/22 10:50:20;;;;;;;7.13;6.10;;;;;;;29.05;72.29;100692.59;4991486;28;20713;-79
2023/08/22 10:52:49;;;;;;;8.60;5.75;;;;;;;29.01;71.18;100700.28;4992369;28;20042;-78
2023/08/22 10:55:20;;;;;;;8.23;5.78;;;;;;;28.86;71.71;100694.81;4970930;28;20098;-80
2023/08/22 10:57:55;;;;;;;8.80;6.32;;;;;;;28.88;72.60;100694.63;5008918;28;20062;-77
2023/08/22 11:00:25;;;;;;;7.50;5.80;;;;;;;29.05;71.16;100684.44;5001672;28;20472;-80
2023/08/22 11:02:59;;;;;;;7.85;6.40;;;;;;;29.26;69.72;100688.16;4992915;28;20056;-75
2023/08/22 11:05:34;;;;;;;7.82;6.25;;;;;;;29.55;63.61;100691.94;5009765;28;20054;-77
2023/08/22 11:08:06;;;;;;;8.10;5.95;;;;;;;29.75;62.05;100673.94;5004907;28;20049;-76
2023/08/22 11:10:35;;;;;;;7.78;5.60;;;;;;;29.92;60.59;100675.44;4989273;28;20056;-77
2023/08/22 11:13:09;;;;;;;6.75;6.07;;;;;;;30.04;60.33;100667.66;4987182;28;20042;-75
2023/08/22 11:15:47;;;;;;;8.85;6.25;;;;;;;30.09;61.18;100684.28;5013049;28;20077;-79
2023/08/22 11:18:19;;;;;;;12.48;6.22;;;;;;;29.92;60.91;100669.13;5001075;28;20050;-80
2023/08/22 11:20:54;;;;;;;11.48;6.40;;;;;;;29.56;65.30;100644.53;5017342;28;20043;-78
2023/08/22 11:23:23;;;;;;;10.55;6.50;;;;;;;29.61;65.45;100683.84;4985028;28;20049;-74
2023/08/22 11:25:56;;;;;;;12.02;6.65;;;;;;;29.62;66.62;100681.97;4999079;28;20058;-75
2023/08/22 11:28:31;;;;;;;6.28;5.63;;;;;;;29.57;67.03;100673.50;5002931;28;20144;-74
2023/08/22 11:31:00;;;;;;;10.02;5.55;;;;;;;29.66;68.14;100667.75;4985880;28;20589;-74
2023/08/22 11:33:36;;;;;;;8.02;5.75;;;;;;;29.82;66.76;100679.50;5004414;28;20442;-73